EIDW

Dublin Airport

Dublin, Ireland
METAR EIDW 192130Z 08017KT 9999 SCT022 BKN050 08/03 Q1021 NOSIG
Observed Flight Rules
Nov-19 @ 21:30 UTC (35 minutes ago) Visual Flight Rules
Wind Visibility Clouds
80° at 17 knots 10,000+ meters
  • Scattered at 2,200' AGL
  • Broken at 5,000' AGL
Temperatures Readings
Current 8°C / 46°F
Dewpoint 3°C / 37°F
Humidity 71%
Altimeter 30.15" Hg
Pressure 1021 hPa
Elevation 85
METAR EIDW 192130Z 08017KT 9999 SCT022 BKN050 08/03 Q1021 NOSIG
Observed Flight Rules
Nov-19 @ 21:30 UTC
(35 minutes ago)
VFR
Wind Visibility
80° at 17 knots 10,000+ meters
Clouds
  • Scattered at 2,200' AGL
  • Broken at 5,000' AGL
Temperature Dewpoint
8°C / 46°F 3°C / 37°F
Humidity Altimeter Pressure
71% 30.15" Hg 1021 hPa